Time;durP1;ratioP1;P1;durP2;ratioP2;P2;SDS_P1;SDS_P2;PMS_P1;PMS_P2;Temp;Humidity;BMP_temperature;BMP_pressure;BME280_temperature;BME280_humidity;BME280_pressure;Samples;Min_cycle;Max_cycle;Signal;HPM_P1;HPM_P2
2022/05/02 00:00:28;;;;;;;;;11.75;11.75;;;;;13.46;51.76;101782.28;5073030;28;50085;-62
2022/05/02 00:02:53;;;;;;;;;14.75;13.75;;;;;13.05;51.90;101703.00;5072602;28;50018;-64
2022/05/02 00:05:19;;;;;;;;;13.50;13.50;;;;;13.37;52.00;101753.06;5072823;28;49636;-64
2022/05/02 00:07:44;;;;;;;;;15.00;13.75;;;;;13.60;51.97;101774.72;5072888;28;49819;-63
2022/05/02 00:10:11;;;;;;;;;19.50;13.25;;;;;13.64;51.89;101766.94;5072477;28;49759;-62
2022/05/02 00:12:36;;;;;;;;;16.50;15.00;;;;;13.68;51.78;101771.41;5072490;28;49768;-62
2022/05/02 00:15:03;;;;;;;;;16.00;13.75;;;;;13.58;51.62;101772.03;5072428;28;49876;-63
2022/05/02 00:20:12;;;;;;;;;18.00;15.25;;;;;13.52;51.75;101756.09;5072743;28;49707;-62
2022/05/02 00:22:38;;;;;;;;;17.75;14.50;;;;;13.44;52.04;101737.41;5072311;27;49974;-62
2022/05/02 00:25:04;;;;;;;;;13.50;12.75;;;;;13.52;52.23;101745.53;5072012;28;49963;-62
2022/05/02 00:27:29;;;;;;;;;18.25;16.00;;;;;13.56;51.88;101750.00;5072428;28;49825;-63
2022/05/02 00:29:55;;;;;;;;;14.50;14.50;;;;;13.49;52.12;101745.44;5072525;28;49758;-62
2022/05/02 00:32:20;;;;;;;;;16.25;14.50;;;;;13.46;51.70;101740.09;5071982;28;50774;-65
2022/05/02 00:34:45;;;;;;;;;18.25;17.75;;;;;13.51;52.04;101748.09;5072229;27;49754;-62
2022/05/02 00:37:11;;;;;;;;;18.50;17.00;;;;;13.51;52.00;101745.47;5072319;28;49853;-65
2022/05/02 00:39:36;;;;;;;;;16.75;13.25;;;;;13.52;52.07;101745.53;5072223;27;49969;-62
2022/05/02 00:42:01;;;;;;;;;17.75;15.25;;;;;13.51;51.89;101743.75;5071607;28;50818;-62
2022/05/02 00:44:27;;;;;;;;;17.50;17.50;;;;;13.55;51.91;101749.97;5072180;28;49891;-61
2022/05/02 00:46:53;;;;;;;;;20.00;17.00;;;;;13.53;52.48;101755.22;5072176;28;50018;-63
2022/05/02 00:49:18;;;;;;;;;15.00;15.00;;;;;13.40;52.51;101726.75;5072240;28;49765;-63
2022/05/02 00:51:44;;;;;;;;;15.25;13.75;;;;;13.39;52.77;101719.69;5072530;27;50997;-62
2022/05/02 00:54:09;;;;;;;;;17.50;14.75;;;;;13.42;52.44;101727.69;5071541;27;49668;-62
2022/05/02 00:56:35;;;;;;;;;16.00;15.25;;;;;13.49;52.77;101734.00;5071944;27;49720;-62
2022/05/02 00:59:00;;;;;;;;;18.75;14.00;;;;;13.39;52.71;101715.31;5072039;28;49682;-63
2022/05/02 01:01:26;;;;;;;;;15.00;15.00;;;;;13.32;52.31;101716.03;5070319;28;51711;-62
2022/05/02 01:03:51;;;;;;;;;17.25;15.75;;;;;13.38;52.88;101717.91;5071686;28;49776;-62
2022/05/02 01:09:02;;;;;;;;;18.50;16.25;;;;;13.36;52.54;101714.34;5065082;28;49795;-62
2022/05/02 01:11:29;;;;;;;;;14.25;14.00;;;;;13.34;53.36;101714.31;5071462;28;50952;-62
2022/05/02 01:13:54;;;;;;;;;15.00;14.50;;;;;13.32;52.90;101704.59;5071643;28;49776;-62
2022/05/02 01:16:24;;;;;;;;;18.50;17.50;;;;;13.37;52.47;101717.03;5070252;28;49859;-62
2022/05/02 01:18:51;;;;;;;;;17.00;13.50;;;;;13.31;52.65;101700.13;5071857;28;50043;-69
2022/05/02 01:21:22;;;;;;;;;15.25;15.25;;;;;13.28;53.58;101700.06;5069711;28;51244;-62
2022/05/02 01:23:50;;;;;;;;;16.75;14.50;;;;;13.22;53.05;101692.00;5070970;28;49700;-62
2022/05/02 01:26:16;;;;;;;;;17.50;17.50;;;;;13.26;52.84;101710.59;5070015;28;49861;-62
2022/05/02 01:28:44;;;;;;;;;18.25;18.00;;;;;13.26;53.02;101712.34;5071540;28;49815;-62
2022/05/02 01:31:09;;;;;;;;;22.75;19.00;;;;;13.14;53.18;101683.91;5071243;28;50788;-63
2022/05/02 01:33:35;;;;;;;;;15.25;13.50;;;;;13.23;53.56;101710.53;5071241;27;49757;-62
2022/05/02 01:36:01;;;;;;;;;12.50;12.50;;;;;13.09;53.94;101691.66;5071327;28;49840;-64
2022/05/02 01:38:27;;;;;;;;;17.25;16.50;;;;;13.15;53.93;101698.84;5071280;28;49890;-62
2022/05/02 01:40:52;;;;;;;;;17.50;16.75;;;;;13.06;53.88;101688.06;5070740;28;49881;-62
2022/05/02 01:43:17;;;;;;;;;16.75;15.00;;;;;13.10;53.72;101701.34;5071187;27;50371;-61
2022/05/02 01:45:43;;;;;;;;;15.00;13.00;;;;;13.03;53.92;101695.91;5071205;28;49862;-62
2022/05/02 01:48:08;;;;;;;;;19.25;18.25;;;;;13.05;53.21;101704.75;5071111;27;49635;-63
2022/05/02 01:50:34;;;;;;;;;19.25;14.75;;;;;13.06;53.50;101711.81;5067363;28;50955;-62
2022/05/02 01:52:59;;;;;;;;;21.75;18.50;;;;;13.08;53.28;101713.63;5070276;28;49622;-62
2022/05/02 01:55:25;;;;;;;;;20.75;20.75;;;;;12.93;53.61;101694.75;5070937;27;49813;-62
2022/05/02 01:57:50;;;;;;;;;17.50;17.25;;;;;13.02;53.41;101702.91;5058828;28;50151;-61
2022/05/02 02:00:16;;;;;;;;;17.00;17.00;;;;;13.04;53.77;101713.50;5067908;27;49931;-62
2022/05/02 02:02:41;;;;;;;;;21.00;20.75;;;;;12.97;53.95;101696.63;5070604;27;49749;-62
2022/05/02 02:07:50;;;;;;;;;21.00;19.50;;;;;12.94;54.17;101698.31;5071081;28;49688;-62
2022/05/02 02:10:15;;;;;;;;;16.00;16.00;;;;;12.95;54.24;101702.72;5070384;28;49643;-65
2022/05/02 02:12:41;;;;;;;;;13.75;13.75;;;;;12.97;54.48;101707.19;5064578;27;50072;-61
2022/05/02 02:15:07;;;;;;;;;20.50;18.00;;;;;13.00;54.50;101704.63;5069726;28;49825;-63
2022/05/02 02:17:32;;;;;;;;;15.50;14.75;;;;;12.92;54.89;101692.97;5070913;27;50016;-62
2022/05/02 02:19:58;;;;;;;;;12.75;12.00;;;;;12.94;54.75;101696.56;5070405;28;49981;-62
2022/05/02 02:22:24;;;;;;;;;22.00;20.25;;;;;12.80;55.08;101674.22;5070132;28;49621;-61
2022/05/02 02:24:49;;;;;;;;;16.00;16.00;;;;;12.77;55.14;101660.97;5070641;28;49915;-62
2022/05/02 02:27:15;;;;;;;;;19.75;18.00;;;;;12.92;55.22;101689.44;5068469;28;49631;-61
2022/05/02 02:29:41;;;;;;;;;19.25;19.25;;;;;13.01;54.84;101703.75;5070399;28;50920;-63
2022/05/02 02:32:07;;;;;;;;;18.50;18.50;;;;;12.99;55.45;101708.09;5070457;28;49802;-68
2022/05/02 02:34:32;;;;;;;;;24.50;19.50;;;;;12.97;55.15;101695.75;5062221;28;50014;-62
2022/05/02 02:36:58;;;;;;;;;19.25;18.50;;;;;12.90;55.65;101685.03;5069575;27;49915;-62
2022/05/02 02:39:23;;;;;;;;;23.75;21.00;;;;;12.89;55.31;101683.25;5070013;27;50572;-63
2022/05/02 02:41:48;;;;;;;;;22.25;20.25;;;;;12.86;55.21;101679.66;5070120;27;49967;-66
2022/05/02 02:44:14;;;;;;;;;22.75;22.75;;;;;12.90;55.35;101690.31;5068834;28;49958;-62
2022/05/02 02:46:39;;;;;;;;;23.50;21.75;;;;;12.87;54.74;101686.72;5068708;28;49576;-62
2022/05/02 02:49:05;;;;;;;;;20.50;19.25;;;;;12.88;55.12;101685.84;5069741;28;50125;-63
2022/05/02 02:51:30;;;;;;;;;26.75;20.25;;;;;12.79;55.26;101670.69;5070209;28;49660;-62
2022/05/02 02:53:55;;;;;;;;;32.25;24.00;;;;;12.76;54.75;101664.47;5067801;28;49665;-69
2022/05/02 02:56:21;;;;;;;;;25.50;23.00;;;;;12.85;55.00;101680.50;5070678;27;49739;-71
2022/05/02 02:58:46;;;;;;;;;28.75;27.50;;;;;12.80;54.27;101679.50;5069963;28;50472;-71
2022/05/02 03:01:11;;;;;;;;;23.50;22.50;;;;;12.81;54.70;101681.28;5070124;28;49957;-72
2022/05/02 03:03:37;;;;;;;;;26.00;23.75;;;;;12.72;54.79;101662.59;5070910;28;49993;-69
2022/05/02 03:06:04;;;;;;;;;25.50;24.75;;;;;12.74;54.95;101667.06;5073856;28;49757;-71
2022/05/02 03:08:33;;;;;;;;;33.25;26.75;;;;;12.75;54.92;101670.59;5073354;28;49742;-61
2022/05/02 03:10:59;;;;;;;;;29.50;28.50;;;;;12.52;53.84;101641.88;5073711;27;49931;-61
2022/05/02 03:13:24;;;;;;;;;30.25;27.00;;;;;12.68;54.10;101674.78;5073593;27;49810;-63
2022/05/02 03:15:50;;;;;;;;;30.50;28.50;;;;;12.57;54.18;101666.59;5073727;28;49853;-70
2022/05/02 03:18:15;;;;;;;;;29.25;26.00;;;;;12.63;54.39;101667.59;5073240;28;50851;-71
2022/05/02 03:20:40;;;;;;;;;23.00;21.75;;;;;12.59;54.58;101657.00;5073399;27;49853;-66
2022/05/02 03:23:06;;;;;;;;;26.25;22.50;;;;;12.63;54.48;101657.97;5073101;28;49879;-70
2022/05/02 03:25:31;;;;;;;;;25.50;25.50;;;;;12.59;54.93;101653.47;5073629;28;49710;-71
2022/05/02 03:27:56;;;;;;;;;22.50;21.25;;;;;12.65;54.63;101665.94;5073214;28;49913;-72
2022/05/02 03:30:22;;;;;;;;;31.25;30.25;;;;;12.47;54.74;101646.13;5073290;27;49890;-68
2022/05/02 03:32:47;;;;;;;;;27.50;22.25;;;;;12.60;54.58;101668.41;5073105;28;49775;-72
2022/05/02 03:35:13;;;;;;;;;21.50;21.50;;;;;12.56;54.87;101659.56;5073554;28;49918;-71
2022/05/02 03:37:38;;;;;;;;;29.00;26.25;;;;;12.40;54.60;101631.00;5071722;28;52172;-68
2022/05/02 03:40:05;;;;;;;;;28.25;27.50;;;;;12.50;55.30;101656.75;5072952;28;49834;-69
2022/05/02 03:42:30;;;;;;;;;27.00;25.75;;;;;11.80;55.21;101527.59;5073106;27;49748;-69
2022/05/02 03:44:56;;;;;;;;;23.00;21.50;;;;;12.45;55.31;101655.75;5073442;28;49868;-72
2022/05/02 03:47:21;;;;;;;;;29.50;26.50;;;;;12.33;55.12;101640.47;5072754;28;50804;-71
2022/05/02 03:49:46;;;;;;;;;34.25;29.00;;;;;12.40;55.21;101654.72;5074944;27;49727;-70
2022/05/02 03:52:12;;;;;;;;;26.25;24.00;;;;;12.25;54.32;101644.63;5073116;28;49874;-71
2022/05/02 03:54:37;;;;;;;;;29.50;27.25;;;;;12.27;54.33;101648.22;5072922;27;49900;-68
2022/05/02 03:57:03;;;;;;;;;25.50;25.00;;;;;12.31;54.35;101665.00;5072700;28;53150;-69
2022/05/02 03:59:28;;;;;;;;;30.00;29.25;;;;;12.29;54.64;101656.16;5072954;28;49865;-69
2022/05/02 04:01:53;;;;;;;;;31.00;27.50;;;;;12.26;54.39;101662.25;5072888;28;50173;-71
2022/05/02 04:04:19;;;;;;;;;21.00;20.50;;;;;12.35;54.33;101663.31;5071403;28;50031;-71
2022/05/02 04:06:44;;;;;;;;;30.50;27.00;;;;;12.22;54.62;101635.78;5072632;27;49770;-71
2022/05/02 04:09:09;;;;;;;;;22.75;21.50;;;;;12.37;54.70;101659.00;5072608;28;49871;-67
2022/05/02 04:11:35;;;;;;;;;28.50;25.50;;;;;12.46;54.56;101659.28;5072628;28;49697;-70
2022/05/02 04:14:00;;;;;;;;;28.50;28.50;;;;;12.38;54.35;101653.78;5072447;27;49837;-70
2022/05/02 04:16:25;;;;;;;;;28.00;26.00;;;;;12.32;54.44;101635.19;5072289;28;50584;-65
2022/05/02 04:18:51;;;;;;;;;28.75;26.25;;;;;12.30;54.16;101653.56;5072662;28;49823;-64
2022/05/02 04:21:17;;;;;;;;;32.75;27.25;;;;;12.32;54.88;101658.88;5072476;28;49754;-68
2022/05/02 04:23:42;;;;;;;;;29.25;27.00;;;;;12.38;55.32;101660.81;5072487;28;50175;-67
2022/05/02 04:26:08;;;;;;;;;28.75;25.50;;;;;12.38;55.45;101660.81;5072272;28;49788;-67
2022/05/02 04:28:34;;;;;;;;;29.00;27.75;;;;;12.20;55.60;101626.94;5072306;27;49748;-65
2022/05/02 04:30:59;;;;;;;;;29.75;26.00;;;;;12.39;56.10;101666.09;5072302;28;49866;-64
2022/05/02 04:33:25;;;;;;;;;29.50;24.50;;;;;12.38;56.75;101666.06;5072462;27;49722;-67
2022/05/02 04:35:50;;;;;;;;;24.00;18.50;;;;;12.30;57.01;101657.94;5072189;28;49946;-63
2022/05/02 04:38:16;;;;;;;;;31.50;26.00;;;;;12.33;57.64;101665.91;5071922;28;49765;-71
2022/05/02 04:40:41;;;;;;;;;24.50;24.50;;;;;12.33;58.21;101672.06;5070669;28;50189;-63
2022/05/02 04:43:06;;;;;;;;;29.25;25.00;;;;;12.29;58.62;101664.06;5072098;28;49698;-69
2022/05/02 04:45:32;;;;;;;;;31.00;28.00;;;;;12.20;57.96;101658.53;5071783;28;50596;-63
2022/05/02 04:47:57;;;;;;;;;22.50;20.25;;;;;12.15;58.48;101653.13;5071906;27;49796;-62
2022/05/02 04:50:23;;;;;;;;;26.00;23.25;;;;;12.25;58.85;101667.44;5074417;27;50163;-64
2022/05/02 04:52:49;;;;;;;;;27.25;27.25;;;;;12.20;58.89;101663.81;5072283;28;49726;-67
2022/05/02 04:55:14;;;;;;;;;28.25;27.50;;;;;12.20;59.36;101659.44;5071607;27;50795;-64
2022/05/02 04:57:40;;;;;;;;;25.25;21.25;;;;;12.24;59.44;101674.44;5072136;28;49638;-62
2022/05/02 05:00:06;;;;;;;;;25.75;25.00;;;;;12.25;59.25;101673.59;5071803;28;50002;-63
2022/05/02 05:02:32;;;;;;;;;25.25;24.75;;;;;12.20;59.29;101656.78;5071685;28;49648;-69
2022/05/02 05:04:57;;;;;;;;;28.50;26.50;;;;;12.18;59.80;101654.97;5071600;28;50472;-67
2022/05/02 05:07:23;;;;;;;;;31.50;27.25;;;;;12.23;59.53;101656.88;5071783;28;49728;-72
2022/05/02 05:09:48;;;;;;;;;27.50;22.75;;;;;12.31;59.49;101673.78;5071543;28;50041;-71
2022/05/02 05:12:32;;;;;;;;;28.75;28.75;;;;;12.37;59.36;101674.81;5071931;27;49977;-71
2022/05/02 05:18:58;;;;;;;;;32.50;31.75;;;;;12.44;59.31;101676.75;5066003;28;49861;-68
2022/05/02 05:22:01;;;;;;;;;26.75;23.75;;;;;12.46;59.10;101668.06;5071685;27;49748;-71
2022/05/02 05:24:45;;;;;;;;;40.25;35.00;;;;;12.48;58.76;101668.09;5049930;28;49776;-69
2022/05/02 05:27:55;;;;;;;;;37.75;29.75;;;;;12.51;59.06;101669.06;5070198;28;49961;-69
2022/05/02 05:30:21;;;;;;;;;34.50;31.75;;;;;12.02;58.72;101582.56;5071475;27;49924;-71
2022/05/02 05:33:28;;;;;;;;;30.00;29.75;;;;;12.42;58.78;101645.09;5071579;28;49671;-68
2022/05/02 05:35:56;;;;;;;;;32.00;32.00;;;;;12.57;58.54;101666.59;5063347;28;50007;-69
2022/05/02 05:38:26;;;;;;;;;33.50;29.00;;;;;12.59;58.67;101664.91;5069376;28;49975;-71
2022/05/02 05:41:06;;;;;;;;;36.25;32.00;;;;;12.57;58.92;101658.72;5071082;27;49738;-66
2022/05/02 05:44:15;;;;;;;;;37.00;34.75;;;;;12.67;58.88;101669.50;5071364;28;49787;-69
2022/05/02 05:46:46;;;;;;;;;32.50;29.25;;;;;12.75;58.70;101662.69;5048134;28;49910;-69
2022/05/02 05:49:36;;;;;;;;;36.50;31.50;;;;;12.79;58.65;101662.78;5068469;27;50922;-69
2022/05/02 05:52:12;;;;;;;;;35.00;34.25;;;;;12.86;58.59;101666.50;5065434;28;49760;-68
2022/05/02 05:54:38;;;;;;;;;39.25;33.75;;;;;12.85;57.70;101667.34;5070782;27;49754;-67
2022/05/02 05:57:09;;;;;;;;;40.50;36.50;;;;;12.92;57.97;101664.00;5071172;28;49797;-70
2022/05/02 05:59:49;;;;;;;;;44.50;37.25;;;;;13.01;57.70;101666.84;5070799;28;50634;-71
2022/05/02 06:02:22;;;;;;;;;42.25;38.00;;;;;13.10;57.42;101669.72;5071010;28;49797;-68
2022/05/02 06:04:49;;;;;;;;;37.25;35.00;;;;;13.14;57.31;101668.06;5071104;28;49662;-72
2022/05/02 06:07:18;;;;;;;;;36.00;33.50;;;;;13.20;56.65;101662.06;5071079;28;49831;-68
2022/05/02 06:09:44;;;;;;;;;39.75;35.00;;;;;13.23;57.20;101656.91;5070533;28;50697;-64
2022/05/02 06:12:12;;;;;;;;;35.75;30.00;;;;;13.17;56.88;101641.78;5073668;27;49717;-78
2022/05/02 06:20:12;;;;;;;;;38.50;34.75;;;;;13.44;56.41;101679.41;5066347;28;50106;-70
2022/05/02 06:22:40;;;;;;;;;39.75;36.25;;;;;13.50;56.11;101677.75;5070551;28;49931;-72
2022/05/02 06:25:06;;;;;;;;;37.25;32.50;;;;;13.52;56.14;101662.88;5070624;28;50140;-69
2022/05/02 06:27:33;;;;;;;;;42.25;35.25;;;;;13.66;55.25;101679.88;5070690;28;49993;-70
2022/05/02 06:30:02;;;;;;;;;44.50;37.25;;;;;13.55;55.75;101641.81;5070365;28;50536;-71
2022/05/02 06:32:29;;;;;;;;;33.00;31.75;;;;;13.85;55.31;101679.44;5070494;28;49913;-72
2022/05/02 06:34:55;;;;;;;;;41.25;35.75;;;;;13.85;55.32;101649.53;5070435;28;49807;-70
2022/05/02 06:37:44;;;;;;;;;45.25;37.75;;;;;14.04;54.84;101670.16;5069193;28;49998;-71
2022/05/02 06:40:30;;;;;;;;;41.00;36.50;;;;;14.13;54.17;101667.72;5070127;28;51051;-72
2022/05/02 06:43:10;;;;;;;;;39.75;36.25;;;;;14.22;54.46;101673.19;5064061;28;50019;-66
2022/05/02 06:45:36;;;;;;;;;39.75;36.50;;;;;14.31;54.28;101681.31;5064280;28;49629;-72
2022/05/02 06:48:16;;;;;;;;;38.00;35.75;;;;;14.39;53.72;101665.63;5070534;28;49879;-69
2022/05/02 06:50:46;;;;;;;;;44.25;38.50;;;;;14.44;54.25;101676.25;5072782;27;50570;-70
2022/05/02 06:53:36;;;;;;;;;36.00;29.50;;;;;14.44;53.93;101668.31;5070034;28;49679;-75
2022/05/02 06:56:27;;;;;;;;;38.00;34.25;;;;;14.52;53.93;101679.97;5069356;28;50028;-68
2022/05/02 06:59:07;;;;;;;;;44.50;37.50;;;;;14.44;53.15;101652.47;5073915;28;49720;-68
2022/05/02 07:01:50;;;;;;;;;44.25;37.50;;;;;14.50;53.01;101661.47;5071183;28;49866;-67
2022/05/02 07:04:25;;;;;;;;;38.75;36.25;;;;;14.65;53.32;101681.97;5070047;28;49927;-68
2022/05/02 07:06:56;;;;;;;;;49.50;38.25;;;;;14.66;53.29;101681.13;5069991;28;49671;-66
2022/05/02 07:09:27;;;;;;;;;42.00;35.75;;;;;14.50;49.75;101679.06;5070066;28;49832;-65
2022/05/02 07:12:11;;;;;;;;;38.75;34.50;;;;;14.33;49.58;101684.84;5069721;28;50861;-67
2022/05/02 07:14:54;;;;;;;;;37.50;34.50;;;;;14.25;49.99;101685.56;5069812;27;49863;-65
2022/05/02 07:17:41;;;;;;;;;40.50;34.00;;;;;14.19;49.97;101674.91;5068448;28;49945;-68
2022/05/02 07:20:12;;;;;;;;;41.00;37.00;;;;;14.22;49.67;101675.84;5070044;28;49852;-70
2022/05/02 07:22:43;;;;;;;;;30.50;29.75;;;;;14.02;49.45;101653.41;5069635;27;51082;-67
2022/05/02 07:25:13;;;;;;;;;40.00;34.75;;;;;14.21;49.24;101676.69;5069582;28;49755;-70
2022/05/02 07:27:48;;;;;;;;;39.75;34.25;;;;;14.31;49.66;101678.66;5069728;28;49988;-67
2022/05/02 07:30:15;;;;;;;;;38.50;33.50;;;;;14.27;49.55;101660.06;5068408;28;49988;-67
2022/05/02 07:32:40;;;;;;;;;50.50;40.75;;;;;14.31;48.86;101669.84;5069571;28;49692;-63
2022/05/02 07:35:07;;;;;;;;;40.00;36.00;;;;;14.41;48.16;101679.72;5069591;28;49937;-62
2022/05/02 07:37:37;;;;;;;;;40.50;33.50;;;;;14.32;48.40;101684.84;5069766;28;49966;-70
2022/05/02 07:40:06;;;;;;;;;37.25;34.25;;;;;14.36;48.03;101654.97;5068278;28;50043;-71
2022/05/02 07:42:32;;;;;;;;;41.25;37.75;;;;;14.43;48.15;101645.41;5068956;28;51041;-72
2022/05/02 07:45:00;;;;;;;;;43.00;38.25;;;;;14.74;47.34;101684.78;5069506;28;49917;-71
2022/05/02 07:47:27;;;;;;;;;42.50;36.50;;;;;14.72;47.44;101668.03;5069654;28;49730;-61
2022/05/02 07:49:56;;;;;;;;;45.50;37.00;;;;;14.77;47.06;101679.59;5075098;27;49843;-61
2022/05/02 07:52:24;;;;;;;;;40.75;35.50;;;;;14.76;47.47;101656.63;5072763;28;49774;-61
2022/05/02 07:54:51;;;;;;;;;48.75;38.25;;;;;14.71;46.65;101679.47;5072515;27;49912;-61
2022/05/02 07:57:19;;;;;;;;;42.75;38.25;;;;;14.88;46.52;101658.63;5073051;28;49804;-62
2022/05/02 07:59:49;;;;;;;;;46.75;35.25;;;;;14.96;46.33;101658.72;5072939;28;50098;-62
2022/05/02 08:02:16;;;;;;;;;46.00;40.25;;;;;15.05;46.32;101670.34;5072670;27;49572;-62
2022/05/02 08:04:42;;;;;;;;;44.50;38.25;;;;;15.09;46.17;101672.19;5072926;28;49690;-61
2022/05/02 08:07:32;;;;;;;;;46.25;38.50;;;;;15.28;45.76;101680.44;5072829;28;49906;-62
2022/05/02 08:10:26;;;;;;;;;48.75;39.00;;;;;15.45;46.05;101679.84;5072889;27;49941;-62
2022/05/02 08:12:58;;;;;;;;;53.50;43.00;;;;;15.35;45.53;101658.53;5031672;28;52479;-62
2022/05/02 08:15:24;;;;;;;;;47.50;40.50;;;;;15.52;45.74;101678.16;5072616;28;49683;-61
2022/05/02 08:18:04;;;;;;;;;59.75;45.25;;;;;15.61;45.03;101680.97;5072087;28;49845;-66
2022/05/02 08:20:44;;;;;;;;;51.00;41.25;;;;;15.78;45.50;101675.06;5071118;28;49953;-62
2022/05/02 08:29:28;;;;;;;;;41.75;36.00;;;;;16.23;44.43;101669.47;5067871;28;49572;-64
2022/05/02 08:32:10;;;;;;;;;42.75;36.75;;;;;16.37;43.61;101672.28;5072573;27;49955;-62
2022/05/02 08:34:38;;;;;;;;;39.00;34.25;;;;;16.35;44.75;101668.72;5070303;28;50539;-68
2022/05/02 08:37:30;;;;;;;;;50.75;42.25;;;;;16.51;43.67;101668.03;5070700;28;50096;-63
2022/05/02 08:40:04;;;;;;;;;50.00;41.25;;;;;16.52;44.06;101670.69;5067269;28;49773;-62
2022/05/02 08:42:48;;;;;;;;;48.00;37.50;;;;;16.40;44.64;101664.34;5072115;28;49845;-70
2022/05/02 08:45:29;;;;;;;;;37.75;35.50;;;;;16.55;43.28;101662.78;5071973;27;50873;-63
2022/05/02 08:48:10;;;;;;;;;50.50;41.75;;;;;16.52;43.93;101665.41;5072118;27;49814;-62
2022/05/02 08:50:52;;;;;;;;;39.25;35.25;;;;;16.30;44.01;101651.00;5070587;28;49827;-66
2022/05/02 08:53:29;;;;;;;;;54.00;43.75;;;;;16.52;44.13;101657.44;5071759;28;49975;-65
2022/05/02 08:56:07;;;;;;;;;50.50;41.75;;;;;16.46;44.08;101629.97;5074551;27;49812;-82
2022/05/02 08:59:12;;;;;;;;;47.50;39.25;;;;;16.88;43.77;101664.88;5067603;28;49805;-64
2022/05/02 09:02:10;;;;;;;;;51.00;41.00;;;;;16.92;43.65;101655.22;5069967;28;49714;-69
2022/05/02 09:05:06;;;;;;;;;49.50;41.00;;;;;17.07;43.66;101660.63;5070658;28;49705;-69
2022/05/02 09:07:53;;;;;;;;;44.00;37.25;;;;;17.35;43.15;101664.41;5069894;27;51196;-66
2022/05/02 09:10:46;;;;;;;;;41.00;35.50;;;;;17.42;43.14;101663.56;5067474;28;49593;-65
2022/05/02 09:13:45;;;;;;;;;49.25;39.50;;;;;17.52;42.91;101660.97;5071621;28;49664;-71
2022/05/02 09:17:00;;;;;;;;;52.50;42.25;;;;;17.68;42.82;101661.09;5069894;27;49944;-70
2022/05/02 09:19:47;;;;;;;;;48.50;40.75;;;;;17.79;42.57;101653.22;5027818;28;49825;-71
2022/05/02 09:22:31;;;;;;;;;46.50;37.50;;;;;18.06;42.89;101647.16;5027814;28;49975;-70
2022/05/02 09:25:10;;;;;;;;;39.00;35.75;;;;;18.06;42.12;101646.28;5060715;28;49971;-73
2022/05/02 09:27:47;;;;;;;;;54.50;42.25;;;;;18.19;42.28;101648.97;5071664;27;50035;-72
2022/05/02 09:30:14;;;;;;;;;47.00;40.75;;;;;18.26;41.73;101650.78;5071202;28;49838;-72
2022/05/02 09:33:16;;;;;;;;;41.75;36.50;;;;;18.44;41.48;101636.66;5068258;28;49819;-70
2022/05/02 09:36:02;;;;;;;;;48.50;38.50;;;;;18.38;41.44;101619.78;5065486;28;49810;-72
2022/05/02 09:38:45;;;;;;;;;42.50;37.00;;;;;18.59;41.02;101617.16;5071376;27;49609;-70
2022/05/02 09:41:17;;;;;;;;;50.25;40.25;;;;;18.72;40.33;101640.28;5069585;28;52951;-72
2022/05/02 09:50:03;;;;;;;;;42.00;35.25;;;;;18.79;40.41;101635.84;5071266;28;49791;-70
2022/05/02 09:52:37;;;;;;;;;50.75;39.25;;;;;18.67;40.16;101641.16;5079886;27;49946;-68
2022/05/02 09:57:59;;;;;;;;;46.50;38.25;;;;;18.85;39.81;101630.53;5071083;27;49936;-68
2022/05/02 10:03:59;;;;;;;;;51.25;41.75;;;;;18.75;39.52;101626.09;5065903;27;49696;-70
2022/05/02 10:06:52;;;;;;;;;38.50;34.50;;;;;18.86;39.99;101625.19;5058506;28;49987;-69
2022/05/02 10:09:40;;;;;;;;;48.00;39.25;;;;;18.87;39.72;101608.34;5097700;27;49886;-68
2022/05/02 10:12:17;;;;;;;;;45.50;38.25;;;;;19.18;39.36;101629.63;5072076;27;49781;-68
2022/05/02 10:15:03;;;;;;;;;45.50;37.50;;;;;19.22;39.47;101628.75;5069200;28;51655;-68
2022/05/02 10:17:47;;;;;;;;;46.75;38.50;;;;;19.30;39.42;101621.66;5069598;27;49881;-69
2022/05/02 10:20:13;;;;;;;;;49.50;39.00;;;;;19.42;39.38;101623.41;5074419;27;49887;-69
2022/05/02 10:22:47;;;;;;;;;46.50;38.25;;;;;19.57;39.32;101617.16;5070340;28;49761;-68
2022/05/02 10:25:41;;;;;;;;;46.00;38.25;;;;;19.65;38.71;101621.59;5074981;27;51140;-69
2022/05/02 10:28:10;;;;;;;;;45.25;37.75;;;;;19.66;38.66;101611.81;5077377;27;49809;-68
2022/05/02 10:30:41;;;;;;;;;43.50;36.25;;;;;19.73;38.13;101624.22;5068057;27;49947;-68
2022/05/02 10:33:15;;;;;;;;;46.50;38.25;;;;;19.66;38.40;101609.16;5069184;28;50068;-71
2022/05/02 10:35:45;;;;;;;;;49.00;39.75;;;;;19.62;38.36;101602.97;5064303;28;49875;-68
2022/05/02 10:38:17;;;;;;;;;43.00;37.00;;;;;19.75;38.16;101605.56;5082610;27;49351;-69
2022/05/02 10:40:45;;;;;;;;;45.00;37.75;;;;;19.78;38.16;101617.09;5083293;27;49512;-68
2022/05/02 10:43:21;;;;;;;;;43.00;36.75;;;;;19.78;37.66;101618.88;5075775;27;49552;-74
2022/05/02 10:45:48;;;;;;;;;48.75;38.25;;;;;19.50;38.11;101604.75;5068954;28;52562;-69
2022/05/02 10:48:17;;;;;;;;;33.25;31.00;;;;;19.49;38.36;101610.94;5075008;27;50088;-68
2022/05/02 10:51:18;;;;;;;;;35.00;32.00;;;;;19.57;38.12;101599.41;5070138;28;49761;-68
2022/05/02 10:54:30;;;;;;;;;44.00;37.25;;;;;19.63;38.35;101606.50;5054431;28;49778;-68
2022/05/02 10:57:00;;;;;;;;;42.25;32.75;;;;;19.57;37.95;101590.53;5070178;27;49810;-70
2022/05/02 10:59:34;;;;;;;;;41.25;34.50;;;;;19.69;38.08;101598.50;5074685;27;49830;-68
2022/05/02 11:02:24;;;;;;;;;41.75;36.00;;;;;19.69;38.00;101601.19;5068190;27;49895;-69
2022/05/02 11:05:06;;;;;;;;;33.00;32.50;;;;;19.71;37.75;101594.06;5070247;28;49730;-69
2022/05/02 11:07:43;;;;;;;;;41.25;33.75;;;;;19.73;38.15;101581.63;5069534;28;49932;-69
2022/05/02 11:10:11;;;;;;;;;38.75;35.00;;;;;19.77;38.24;101585.13;5069924;28;49711;-69
2022/05/02 11:12:41;;;;;;;;;35.75;33.25;;;;;19.79;37.78;101565.63;5069844;28;50123;-69
2022/05/02 11:15:14;;;;;;;;;36.25;33.50;;;;;19.76;37.36;101567.38;5068925;27;49714;-68
2022/05/02 11:17:50;;;;;;;;;34.75;33.25;;;;;20.00;37.63;101573.50;5069658;28;50526;-69
2022/05/02 11:20:43;;;;;;;;;39.25;35.25;;;;;20.08;37.27;101575.25;5069881;28;49822;-68
2022/05/02 11:23:39;;;;;;;;;35.25;32.50;;;;;20.14;37.42;101576.06;5068821;28;50063;-69
2022/05/02 11:26:37;;;;;;;;;30.75;28.25;;;;;20.40;37.35;101573.25;5067325;28;49725;-70
2022/05/02 11:29:34;;;;;;;;;31.75;29.50;;;;;20.70;36.50;101561.50;5056106;28;50164;-70
2022/05/02 11:32:04;;;;;;;;;33.25;29.00;;;;;20.88;36.38;101570.25;5068845;27;49672;-70
2022/05/02 11:34:48;;;;;;;;;35.75;30.25;;;;;20.83;36.42;101570.28;5073160;28;49852;-68
2022/05/02 11:37:31;;;;;;;;;34.00;31.00;;;;;20.95;36.05;101572.88;5073231;28;49834;-69
2022/05/02 11:40:09;;;;;;;;;35.50;31.75;;;;;20.91;35.64;101559.53;5052839;28;50236;-70
2022/05/02 11:42:43;;;;;;;;;36.25;31.25;;;;;20.68;35.95;101509.06;5072710;27;49762;-72
2022/05/02 11:45:13;;;;;;;;;24.00;24.00;;;;;20.56;36.23;101568.75;5076436;27;50166;-72
2022/05/02 11:48:00;;;;;;;;;34.00;30.50;;;;;20.50;36.18;101568.78;5076161;27;49746;-67
2022/05/02 11:50:27;;;;;;;;;29.75;25.75;;;;;20.47;36.49;101564.38;5071320;28;51285;-71
2022/05/02 11:52:55;;;;;;;;;32.25;30.75;;;;;20.27;35.97;101567.13;5072702;28;49699;-74
2022/05/02 11:55:34;;;;;;;;;28.00;24.00;;;;;20.17;36.79;101561.84;5073025;28;49803;-72
2022/05/02 11:58:07;;;;;;;;;2.00;0.00;;;;;20.40;37.13;101556.38;5073147;28;49987;-73
2022/05/02 12:00:35;;;;;;;;;26.00;24.00;;;;;20.60;36.24;101564.25;5072496;28;50627;-73
2022/05/02 12:03:20;;;;;;;;;34.25;30.50;;;;;20.32;35.81;101536.88;5072746;28;49850;-74
2022/05/02 12:06:01;;;;;;;;;31.50;27.25;;;;;20.73;36.24;101558.78;5073383;27;49564;-64
2022/05/02 12:08:34;;;;;;;;;37.75;32.25;;;;;20.49;35.97;101562.56;5072705;28;49687;-69